createdAt,value
2019-05-10T00:00:09.881Z,10.6
2019-05-10T00:01:11.513Z,10.5
2019-05-10T00:02:13.096Z,10.4
2019-05-10T00:03:14.978Z,10.5
2019-05-10T00:04:16.834Z,10.5
2019-05-10T00:05:18.149Z,10.5
2019-05-10T00:06:19.743Z,10.5
2019-05-10T00:07:21.611Z,10.6
2019-05-10T00:08:23.199Z,10.6
2019-05-10T00:09:25.064Z,10.5
2019-05-10T00:10:26.649Z,10.5
2019-05-10T00:11:27.961Z,10.6
2019-05-10T00:12:29.827Z,10.6
2019-05-10T00:13:31.695Z,10.6
2019-05-10T00:14:33.011Z,10.5
2019-05-10T00:15:34.595Z,10.5
2019-05-10T00:16:36.462Z,10.6
2019-05-10T00:17:38.046Z,10.5
2019-05-10T00:18:39.651Z,10.5
2019-05-10T00:19:41.516Z,10.5
2019-05-10T00:20:43.382Z,10.7
2019-05-10T00:21:45.245Z,10.7
2019-05-10T00:22:46.821Z,10.7
2019-05-10T00:23:48.691Z,10.6
2019-05-10T00:25:02.717Z,10.6
2019-05-10T00:26:06.528Z,10.6
2019-05-10T00:27:08.392Z,10.6
2019-05-10T00:28:09.992Z,10.5
2019-05-10T00:29:11.854Z,10.5
2019-05-10T00:30:13.719Z,10.5
2019-05-10T00:31:15.579Z,10.6
2019-05-10T00:32:17.445Z,10.5
2019-05-10T00:33:19.034Z,10.6
2019-05-10T00:34:20.639Z,10.4
2019-05-10T00:35:22.223Z,10.5
2019-05-10T00:36:24.087Z,10.5
2019-05-10T00:37:25.949Z,10.4
2019-05-10T00:38:27.814Z,10.5
2019-05-10T00:39:29.681Z,10.4
2019-05-10T00:40:30.978Z,10.4
2019-05-10T00:41:32.845Z,10.4
2019-05-10T00:42:34.708Z,10.3
2019-05-10T00:43:36.571Z,10.3
2019-05-10T00:44:38.454Z,10.3
2019-05-10T00:45:40.307Z,10.4
2019-05-10T00:46:42.174Z,10.4
2019-05-10T00:47:44.038Z,10.3
2019-05-10T00:48:45.898Z,10.3
2019-05-10T00:49:47.760Z,10.3
2019-05-10T00:50:49.622Z,10.4
2019-05-10T00:51:51.485Z,10.4
2019-05-10T00:52:53.347Z,10.4
2019-05-10T00:53:55.205Z,10.4
2019-05-10T00:54:56.781Z,10.2
2019-05-10T00:55:58.658Z,10.2
2019-05-10T00:57:00.521Z,10.3
2019-05-10T00:58:01.817Z,10.2
2019-05-10T00:59:03.403Z,10.2
2019-05-10T01:00:05.267Z,10.2
2019-05-10T01:01:06.852Z,10.2
2019-05-10T01:02:08.448Z,10.2
2019-05-10T01:03:10.313Z,10.3
2019-05-10T01:04:11.900Z,10.2
2019-05-10T01:05:13.759Z,10.2
2019-05-10T01:06:15.617Z,10.2
2019-05-10T01:07:17.487Z,10.2
2019-05-10T01:08:19.345Z,10.2
2019-05-10T01:09:20.933Z,10.2
2019-05-10T01:10:22.799Z,10.2
2019-05-10T01:11:24.741Z,10.2
2019-05-10T01:12:26.585Z,10.2
2019-05-10T01:13:28.450Z,10.3
2019-05-10T01:14:30.315Z,10.3
2019-05-10T01:15:32.185Z,10.2
2019-05-10T01:16:34.050Z,10.2
2019-05-10T01:17:35.910Z,10.2
2019-05-10T01:18:37.485Z,10.2
2019-05-10T01:19:39.363Z,10.1
2019-05-10T01:20:41.218Z,10.1
2019-05-10T01:21:43.083Z,10
2019-05-10T01:22:44.955Z,10.1
2019-05-10T01:23:46.816Z,10
2019-05-10T01:24:48.683Z,9.9
2019-05-10T01:25:50.544Z,10
2019-05-10T01:26:52.407Z,9.9
2019-05-10T01:27:54.269Z,10.1
2019-05-10T01:28:56.130Z,10
2019-05-10T01:29:57.992Z,9.9
2019-05-10T01:30:59.859Z,9.9
2019-05-10T01:32:01.731Z,9.8
2019-05-10T01:33:03.592Z,10
2019-05-10T01:34:05.455Z,9.8
2019-05-10T01:35:07.330Z,9.9
2019-05-10T01:36:09.195Z,9.8
2019-05-10T01:37:11.056Z,9.8
2019-05-10T01:38:12.997Z,9.9
2019-05-10T01:39:14.854Z,9.8
2019-05-10T01:40:16.715Z,9.7
2019-05-10T01:41:18.577Z,9.8
2019-05-10T01:42:20.439Z,9.8
2019-05-10T01:43:22.301Z,9.6
2019-05-10T01:44:24.164Z,9.6
2019-05-10T01:45:26.066Z,9.7
2019-05-10T01:46:27.934Z,9.7
2019-05-10T01:47:29.518Z,9.6
2019-05-10T01:48:31.396Z,9.7
2019-05-10T01:49:33.248Z,9.6
2019-05-10T01:50:35.111Z,9.7
2019-05-10T01:51:36.978Z,9.7
2019-05-10T01:52:38.887Z,9.6
2019-05-10T01:53:40.751Z,9.6
2019-05-10T01:54:42.626Z,9.5
2019-05-10T01:55:51.899Z,9.7
2019-05-10T01:56:54.505Z,9.6
2019-05-10T01:57:56.087Z,9.5
2019-05-10T01:58:57.961Z,9.5
2019-05-10T01:59:59.836Z,9.5
2019-05-10T02:01:01.706Z,9.5
2019-05-10T02:02:03.513Z,9.5
2019-05-10T02:03:05.429Z,9.5
2019-05-10T02:04:06.726Z,9.5
2019-05-10T02:05:08.591Z,9.5
2019-05-10T02:06:10.455Z,9.5
2019-05-10T02:07:12.317Z,9.6
2019-05-10T02:08:14.183Z,9.6
2019-05-10T02:09:16.040Z,9.4
2019-05-10T02:10:17.983Z,9.4
2019-05-10T02:11:19.849Z,9.4
2019-05-10T02:12:21.439Z,9.4
2019-05-10T02:13:23.301Z,9.4
2019-05-10T02:14:25.164Z,9.2
2019-05-10T02:15:26.516Z,9.3
2019-05-10T02:16:28.380Z,9.2
2019-05-10T02:17:29.965Z,9.3
2019-05-10T02:18:31.829Z,9.1
2019-05-10T02:19:33.417Z,9.3
2019-05-10T02:20:35.281Z,9.2
2019-05-10T02:21:37.144Z,9.2
2019-05-10T02:22:39.006Z,9.3
2019-05-10T02:23:40.955Z,9.2
2019-05-10T02:24:42.818Z,9.4
2019-05-10T02:25:44.684Z,9.3
2019-05-10T02:26:46.563Z,9.3
2019-05-10T02:27:48.137Z,9.3
2019-05-10T02:28:49.730Z,9.3
2019-05-10T02:29:51.612Z,9.4
2019-05-10T02:30:53.478Z,9.4
2019-05-10T02:31:55.069Z,9.4
2019-05-10T02:32:56.939Z,9.4
2019-05-10T02:33:58.802Z,9.4
2019-05-10T02:35:00.663Z,9.4
2019-05-10T02:36:03.028Z,9.6
2019-05-10T02:37:04.889Z,9.5
2019-05-10T02:38:06.769Z,9.5
2019-05-10T02:39:08.634Z,9.5
2019-05-10T02:40:10.495Z,9.5
2019-05-10T02:41:12.356Z,9.5
2019-05-10T02:42:14.221Z,9.5
2019-05-10T02:43:16.165Z,9.4
2019-05-10T02:44:18.024Z,9.5
2019-05-10T02:45:19.609Z,9.4
2019-05-10T02:46:21.634Z,9.5
2019-05-10T02:47:23.211Z,9.6
2019-05-10T02:48:25.075Z,9.6
2019-05-10T02:49:26.952Z,9.4
2019-05-10T02:50:28.529Z,9.6
2019-05-10T02:51:30.396Z,9.6
2019-05-10T02:52:32.370Z,9.6
2019-05-10T02:53:34.232Z,9.6
2019-05-10T02:54:36.095Z,9.6
2019-05-10T02:55:37.964Z,9.6
2019-05-10T02:56:39.829Z,9.5
2019-05-10T02:57:41.698Z,9.6
2019-05-10T02:58:43.562Z,9.5
2019-05-10T02:59:45.156Z,9.5
2019-05-10T03:00:47.019Z,9.5
2019-05-10T03:01:48.883Z,9.6
2019-05-10T03:02:50.755Z,9.6
2019-05-10T03:03:52.612Z,9.6
2019-05-10T03:04:54.473Z,9.6
2019-05-10T03:05:56.334Z,9.6
2019-05-10T03:06:58.214Z,9.4
2019-05-10T03:08:00.086Z,9.6
2019-05-10T03:09:01.671Z,9.6
2019-05-10T03:10:03.249Z,9.5
2019-05-10T03:11:04.844Z,9.6
2019-05-10T03:12:06.438Z,9.5
2019-05-10T03:13:08.300Z,9.7
2019-05-10T03:14:10.166Z,9.7
2019-05-10T03:15:12.032Z,9.6
2019-05-10T03:16:13.621Z,9.5
2019-05-10T03:17:15.208Z,9.5
2019-05-10T03:18:17.066Z,9.7
2019-05-10T03:19:18.931Z,9.7
2019-05-10T03:20:20.867Z,9.6
2019-05-10T03:21:22.732Z,9.6
2019-05-10T03:22:24.827Z,9.6
2019-05-10T03:23:26.738Z,9.6
2019-05-10T03:24:28.600Z,9.7
2019-05-10T03:25:30.473Z,9.7
2019-05-10T03:26:49.543Z,9.6
2019-05-10T03:27:53.046Z,9.7
2019-05-10T03:28:54.912Z,9.6
2019-05-10T03:29:56.833Z,9.6
2019-05-10T03:30:58.694Z,9.6
2019-05-10T03:32:00.720Z,9.7
2019-05-10T03:33:02.730Z,9.6
2019-05-10T03:34:04.645Z,9.6
2019-05-10T03:35:06.241Z,9.5
2019-05-10T03:36:08.171Z,9.6
2019-05-10T03:37:10.022Z,9.7
2019-05-10T03:38:11.918Z,9.6
2019-05-10T03:39:13.520Z,9.6
2019-05-10T03:40:15.383Z,9.7
2019-05-10T03:41:17.240Z,9.6
2019-05-10T03:42:19.174Z,9.6
2019-05-10T03:43:21.040Z,9.6
2019-05-10T03:44:22.914Z,9.5
2019-05-10T03:45:24.493Z,9.6
2019-05-10T03:46:26.357Z,9.6
2019-05-10T03:47:28.219Z,9.6
2019-05-10T03:48:30.082Z,9.7
2019-05-10T03:49:31.945Z,9.6
2019-05-10T03:50:33.817Z,9.6
2019-05-10T03:51:35.669Z,9.6
2019-05-10T03:52:37.251Z,9.8
2019-05-10T03:53:39.114Z,9.6
2019-05-10T03:54:40.994Z,9.6
2019-05-10T03:55:42.853Z,9.7
2019-05-10T03:56:44.718Z,9.7
2019-05-10T03:57:46.575Z,9.7
2019-05-10T03:58:48.447Z,9.7
2019-05-10T03:59:50.363Z,9.7
2019-05-10T04:00:52.227Z,9.6
2019-05-10T04:01:54.095Z,9.6
2019-05-10T04:02:55.965Z,9.7
2019-05-10T04:03:57.834Z,9.7
2019-05-10T04:04:59.691Z,9.7
2019-05-10T04:06:01.556Z,9.7
2019-05-10T04:07:03.420Z,9.7
2019-05-10T04:08:05.021Z,9.7
2019-05-10T04:09:06.882Z,9.7
2019-05-10T04:10:08.743Z,9.8
2019-05-10T04:11:10.611Z,9.7
2019-05-10T04:12:12.185Z,9.8
2019-05-10T04:13:14.047Z,9.7
2019-05-10T04:14:15.642Z,9.8
2019-05-10T04:15:17.501Z,9.8
2019-05-10T04:16:19.077Z,9.8
2019-05-10T04:17:20.939Z,10
2019-05-10T04:18:22.803Z,9.9
2019-05-10T04:19:24.665Z,9.9
2019-05-10T04:20:26.530Z,9.9
2019-05-10T04:21:28.399Z,9.8
2019-05-10T04:22:30.256Z,9.9
2019-05-10T04:23:32.129Z,9.9
2019-05-10T04:24:36.350Z,9.8
2019-05-10T04:25:38.485Z,9.9
2019-05-10T04:26:40.352Z,9.9
2019-05-10T04:27:42.242Z,9.9
2019-05-10T04:28:44.087Z,10
2019-05-10T04:29:45.983Z,9.9
2019-05-10T04:30:47.833Z,9.9
2019-05-10T04:31:49.707Z,9.8
2019-05-10T04:32:51.573Z,9.8
2019-05-10T04:33:53.436Z,10
2019-05-10T04:34:55.299Z,9.8
2019-05-10T04:35:57.167Z,9.9
2019-05-10T04:36:59.034Z,10
2019-05-10T04:38:00.899Z,9.9
2019-05-10T04:39:02.774Z,9.9
2019-05-10T04:40:04.350Z,10
2019-05-10T04:41:06.216Z,10
2019-05-10T04:42:08.079Z,10
2019-05-10T04:43:09.946Z,9.9
2019-05-10T04:44:11.806Z,10
2019-05-10T04:45:13.669Z,9.9
2019-05-10T04:46:15.537Z,10
2019-05-10T04:47:17.399Z,9.9
2019-05-10T04:48:18.983Z,10.1
2019-05-10T04:49:20.852Z,10
2019-05-10T04:50:22.719Z,10
2019-05-10T04:51:24.584Z,9.9
2019-05-10T04:52:25.894Z,10
2019-05-10T04:53:27.753Z,10.1
2019-05-10T04:54:29.617Z,10.1
2019-05-10T04:55:31.483Z,10
2019-05-10T04:56:33.416Z,10.1
2019-05-10T04:57:49.071Z,10.1
2019-05-10T04:58:52.800Z,10
2019-05-10T04:59:54.662Z,10
2019-05-10T05:00:56.587Z,10
2019-05-10T05:01:58.424Z,10.1
2019-05-10T05:03:00.303Z,10
2019-05-10T05:04:02.242Z,10
2019-05-10T05:05:03.943Z,10.1
2019-05-10T05:06:05.784Z,10.2
2019-05-10T05:07:07.645Z,10
2019-05-10T05:08:09.510Z,10
2019-05-10T05:09:11.377Z,10
2019-05-10T05:10:13.240Z,10.1
2019-05-10T05:11:15.104Z,10.1
2019-05-10T05:12:16.967Z,10
2019-05-10T05:13:18.834Z,10.1
2019-05-10T05:14:20.431Z,10
2019-05-10T05:15:22.303Z,10.1
2019-05-10T05:16:24.166Z,10.1
2019-05-10T05:17:25.473Z,10.1
2019-05-10T05:18:27.333Z,10.1
2019-05-10T05:19:29.194Z,10
2019-05-10T05:20:31.057Z,10
2019-05-10T05:21:32.986Z,10
2019-05-10T05:22:34.844Z,10.1
2019-05-10T05:23:36.706Z,10.2
2019-05-10T05:24:38.572Z,10
2019-05-10T05:25:41.800Z,10
2019-05-10T05:26:43.770Z,10.1
2019-05-10T05:27:45.364Z,9.9
2019-05-10T05:28:47.230Z,10.1
2019-05-10T05:29:49.087Z,10
2019-05-10T05:30:50.676Z,10
2019-05-10T05:31:53.773Z,10.1
2019-05-10T05:33:04.717Z,10
2019-05-10T05:34:06.582Z,10
2019-05-10T05:35:08.443Z,10
2019-05-10T05:36:10.047Z,10.1
2019-05-10T05:37:11.911Z,10.1
2019-05-10T05:38:13.787Z,10
2019-05-10T05:39:15.636Z,10.1
2019-05-10T05:40:17.225Z,10.1
2019-05-10T05:41:19.099Z,10.1
2019-05-10T05:42:22.188Z,10.1
2019-05-10T05:43:30.076Z,10.1
2019-05-10T05:44:31.946Z,10.1
2019-05-10T05:45:35.589Z,10.1
2019-05-10T05:46:37.287Z,10.1
2019-05-10T05:47:42.050Z,10.1
2019-05-10T05:48:46.335Z,10.2
2019-05-10T05:49:51.819Z,10.1
2019-05-10T05:50:53.407Z,10.2
2019-05-10T05:51:55.271Z,10.3
2019-05-10T05:52:57.133Z,10.2
2019-05-10T05:53:59.050Z,10.2
2019-05-10T05:55:05.575Z,10.2
2019-05-10T05:56:12.461Z,10.2
2019-05-10T05:57:16.138Z,10.1
2019-05-10T05:58:27.134Z,10.3
2019-05-10T05:59:28.940Z,10.3
2019-05-10T06:00:30.810Z,10.3
2019-05-10T06:01:46.945Z,10.3
2019-05-10T06:02:48.821Z,10.3
2019-05-10T06:03:50.678Z,10.3
2019-05-10T06:04:52.554Z,10.4
2019-05-10T06:05:54.405Z,10.3
2019-05-10T06:06:58.986Z,10.2
2019-05-10T06:08:02.101Z,10.3
2019-05-10T06:09:04.140Z,10.3
2019-05-10T06:10:09.987Z,10.4
2019-05-10T06:11:20.937Z,10.4
2019-05-10T06:12:22.799Z,10.4
2019-05-10T06:13:30.065Z,10.4
2019-05-10T06:14:34.035Z,10.5
2019-05-10T06:15:35.900Z,10.4
2019-05-10T06:16:37.759Z,10.4
2019-05-10T06:17:39.626Z,10.5
2019-05-10T06:18:46.897Z,10.5
2019-05-10T06:19:50.398Z,10.4
2019-05-10T06:20:52.260Z,10.4
2019-05-10T06:21:57.840Z,10.4
2019-05-10T06:23:07.918Z,10.6
2019-05-10T06:24:13.219Z,10.5
2019-05-10T06:25:17.234Z,10.4
2019-05-10T06:26:24.187Z,10.6
2019-05-10T06:27:30.237Z,10.5
2019-05-10T06:28:58.121Z,10.6
2019-05-10T06:30:18.061Z,10.5
2019-05-10T06:31:19.645Z,10.5
2019-05-10T06:32:21.574Z,10.6
2019-05-10T06:33:23.438Z,10.6
2019-05-10T06:34:25.301Z,10.6
2019-05-10T06:35:33.880Z,10.6
2019-05-10T06:36:35.738Z,10.6
2019-05-10T06:37:37.598Z,10.6
2019-05-10T06:38:39.181Z,10.6
2019-05-10T06:39:41.042Z,10.7
2019-05-10T06:40:47.059Z,10.6
2019-05-10T06:41:55.495Z,10.6
2019-05-10T06:42:59.771Z,10.7
2019-05-10T06:44:01.736Z,10.6
2019-05-10T06:45:04.307Z,10.6
2019-05-10T06:46:17.082Z,10.6
2019-05-10T06:47:21.578Z,10.6
2019-05-10T06:48:26.872Z,10.6
2019-05-10T06:49:35.149Z,10.6
2019-05-10T06:50:51.121Z,10.6
2019-05-10T06:51:52.984Z,10.6
2019-05-10T06:53:00.329Z,10.7
2019-05-10T06:54:12.160Z,10.6
2019-05-10T06:55:14.024Z,10.7
2019-05-10T06:56:15.889Z,10.6
2019-05-10T06:57:19.295Z,10.8
2019-05-10T06:58:21.239Z,10.8
2019-05-10T06:59:24.709Z,10.8
2019-05-10T07:00:27.790Z,10.9
2019-05-10T07:01:29.647Z,10.8
2019-05-10T07:02:32.442Z,10.8
2019-05-10T07:03:34.156Z,10.9
2019-05-10T07:04:40.681Z,11
2019-05-10T07:05:42.607Z,10.9
2019-05-10T07:06:44.485Z,10.9
2019-05-10T07:07:46.345Z,11
2019-05-10T07:08:51.502Z,11
2019-05-10T07:10:08.608Z,10.9
2019-05-10T07:11:26.192Z,11
2019-05-10T07:12:30.075Z,10.9
2019-05-10T07:13:32.121Z,10.9
2019-05-10T07:14:33.990Z,10.9
2019-05-10T07:15:41.491Z,11.1
2019-05-10T07:16:45.890Z,11.1
2019-05-10T07:17:47.751Z,11.1
2019-05-10T07:18:49.334Z,11.1
2019-05-10T07:20:02.719Z,11.2
2019-05-10T07:21:06.546Z,11.1
2019-05-10T07:22:10.188Z,11.1
2019-05-10T07:23:12.057Z,11
2019-05-10T07:24:18.111Z,11.2
2019-05-10T07:25:28.681Z,11.3
2019-05-10T07:26:30.545Z,11.3
2019-05-10T07:27:36.494Z,11.3
2019-05-10T07:28:40.246Z,11.3
2019-05-10T07:29:45.787Z,11.5
2019-05-10T07:30:47.774Z,11.4
2019-05-10T07:31:49.633Z,11.5
2019-05-10T07:32:54.501Z,11.5
2019-05-10T07:34:03.258Z,11.6
2019-05-10T07:35:04.863Z,11.5
2019-05-10T07:36:14.281Z,11.5
2019-05-10T07:37:31.454Z,11.4
2019-05-10T07:38:33.432Z,11.6
2019-05-10T07:39:35.296Z,11.5
2019-05-10T07:40:37.164Z,11.5
2019-05-10T07:41:39.025Z,11.5
2019-05-10T07:42:45.405Z,11.4
2019-05-10T07:43:48.567Z,11.5
2019-05-10T07:44:50.432Z,11.4
2019-05-10T07:45:52.296Z,11.4
2019-05-10T07:47:09.402Z,11.4
2019-05-10T07:48:11.268Z,11.3
2019-05-10T07:49:13.130Z,11.4
2019-05-10T07:50:14.996Z,11.2
2019-05-10T07:51:16.861Z,11.3
2019-05-10T07:52:29.478Z,11.2
2019-05-10T07:53:37.443Z,11.2
2019-05-10T07:54:45.017Z,11.2
2019-05-10T07:55:49.268Z,10.9
2019-05-10T07:56:51.132Z,11
2019-05-10T07:57:52.995Z,11
2019-05-10T07:59:05.890Z,10.9
2019-05-10T08:00:07.752Z,10.8
2019-05-10T08:01:09.336Z,10.7
2019-05-10T08:02:12.664Z,10.6
2019-05-10T08:03:21.132Z,10.7
2019-05-10T08:04:28.715Z,10.7
2019-05-10T08:05:35.036Z,10.7
2019-05-10T08:06:40.942Z,10.9
2019-05-10T08:07:53.221Z,10.9
2019-05-10T08:09:00.552Z,10.8
2019-05-10T08:10:10.569Z,10.9
2019-05-10T08:11:12.426Z,10.8
2019-05-10T08:12:14.292Z,11.1
2019-05-10T08:13:21.055Z,11.1
2019-05-10T08:14:29.095Z,11.2
2019-05-10T08:15:34.708Z,11.4
2019-05-10T08:16:38.864Z,11.5
2019-05-10T08:17:45.311Z,11.6
2019-05-10T08:18:55.555Z,11.6
2019-05-10T08:20:03.072Z,11.8
2019-05-10T08:21:32.168Z,11.8
2019-05-10T08:22:41.222Z,11.9
2019-05-10T08:23:47.190Z,12
2019-05-10T08:24:52.570Z,12.1
2019-05-10T08:25:57.898Z,11.9
2019-05-10T08:27:07.510Z,11.8
2019-05-10T08:28:16.383Z,11.9
2019-05-10T08:29:18.266Z,11.9
2019-05-10T08:30:26.130Z,12.1
2019-05-10T08:31:40.273Z,12.1
2019-05-10T08:33:00.136Z,12.3
2019-05-10T08:34:15.358Z,12.4
2019-05-10T08:35:18.827Z,12.2
2019-05-10T08:36:21.880Z,12.1
2019-05-10T08:37:30.844Z,11.8
2019-05-10T08:38:39.542Z,11.8
2019-05-10T08:40:12.755Z,11.8
2019-05-10T08:41:18.089Z,11.5
2019-05-10T08:42:35.346Z,11.4
2019-05-10T08:44:16.423Z,11.4
2019-05-10T08:45:24.972Z,11.4
2019-05-10T08:46:34.893Z,11.5
2019-05-10T08:47:45.107Z,11.5
2019-05-10T08:48:51.214Z,11.6
2019-05-10T08:50:08.605Z,11.5
2019-05-10T08:51:57.608Z,11.5
2019-05-10T08:53:02.126Z,11.7
2019-05-10T08:54:17.745Z,11.9
2019-05-10T08:55:19.604Z,11.8
2019-05-10T08:56:24.325Z,11.9
2019-05-10T08:57:25.966Z,11.9
2019-05-10T08:58:31.203Z,12
2019-05-10T08:59:38.373Z,12
2019-05-10T09:00:50.479Z,12
2019-05-10T09:02:32.867Z,12
2019-05-10T09:03:34.791Z,12
2019-05-10T09:04:42.649Z,12.2
2019-05-10T09:05:53.734Z,12.3
2019-05-10T09:06:59.688Z,12.4
2019-05-10T09:08:05.717Z,12.3
2019-05-10T09:09:33.629Z,12.4
2019-05-10T09:10:53.608Z,12.6
2019-05-10T09:11:57.659Z,12.7
2019-05-10T09:13:12.921Z,12.7
2019-05-10T09:14:19.897Z,12.8
2019-05-10T09:15:25.496Z,12.8
2019-05-10T09:16:28.974Z,12.6
2019-05-10T09:18:04.034Z,12.7
2019-05-10T09:19:08.947Z,12.6
2019-05-10T09:20:20.556Z,12.6
2019-05-10T09:21:27.939Z,12.6
2019-05-10T09:22:33.393Z,12.5
2019-05-10T09:23:42.365Z,12.5
2019-05-10T09:24:48.411Z,12.6
2019-05-10T09:25:53.937Z,12.7
2019-05-10T09:26:57.039Z,12.5
2019-05-10T09:28:02.188Z,12.5
2019-05-10T09:29:17.758Z,12.5
2019-05-10T09:30:21.857Z,12.5
2019-05-10T09:31:25.599Z,12.5
2019-05-10T09:32:28.770Z,12.6
2019-05-10T09:33:34.413Z,12.8
2019-05-10T09:34:48.985Z,12.8
2019-05-10T09:36:02.707Z,12.8
2019-05-10T09:37:07.908Z,13
2019-05-10T09:38:18.329Z,13
2019-05-10T09:39:25.051Z,13
2019-05-10T09:40:26.747Z,12.9
2019-05-10T09:41:33.622Z,13
2019-05-10T09:42:43.166Z,12.9
2019-05-10T09:43:48.624Z,12.9
2019-05-10T09:44:55.120Z,13.1
2019-05-10T09:45:56.749Z,13
2019-05-10T09:46:58.300Z,13
2019-05-10T09:48:04.132Z,13
2019-05-10T09:49:14.480Z,13
2019-05-10T09:50:22.636Z,13
2019-05-10T09:51:28.668Z,12.9
2019-05-10T09:52:34.634Z,12.8
2019-05-10T09:53:38.236Z,12.8
2019-05-10T09:54:40.271Z,12.8
2019-05-10T09:55:45.426Z,12.7
2019-05-10T09:57:03.930Z,12.7
2019-05-10T09:58:08.684Z,12.6
2019-05-10T09:59:10.530Z,12.7
2019-05-10T10:00:12.391Z,12.6
2019-05-10T10:01:18.841Z,12.7
2019-05-10T10:02:26.424Z,12.5
2019-05-10T10:03:43.329Z,12.6
2019-05-10T10:04:48.573Z,12.7
2019-05-10T10:05:55.003Z,12.8
2019-05-10T10:07:12.037Z,12.7
2019-05-10T10:08:13.623Z,12.6
2019-05-10T10:09:17.121Z,12.7
2019-05-10T10:10:26.432Z,12.7
2019-05-10T10:11:33.577Z,12.7
2019-05-10T10:12:37.240Z,12.8
2019-05-10T10:13:43.212Z,12.6
2019-05-10T10:15:02.570Z,12.8
2019-05-10T10:16:10.016Z,12.7
2019-05-10T10:17:18.193Z,12.8
2019-05-10T10:18:25.286Z,12.9
2019-05-10T10:19:29.798Z,12.8
2019-05-10T10:20:35.801Z,12.8
2019-05-10T10:21:48.606Z,12.9
2019-05-10T10:22:54.379Z,12.7
2019-05-10T10:23:57.399Z,12.6
2019-05-10T10:25:19.948Z,12.6
2019-05-10T10:26:22.420Z,12.7
2019-05-10T10:27:25.870Z,12.7
2019-05-10T10:28:40.328Z,12.9
2019-05-10T10:29:42.191Z,13
2019-05-10T10:30:44.054Z,13.1
2019-05-10T10:32:07.666Z,13
2019-05-10T10:33:11.157Z,13
2019-05-10T10:34:32.495Z,13
2019-05-10T10:35:44.172Z,13.4
2019-05-10T10:36:48.882Z,13.5
2019-05-10T10:37:50.743Z,13.4
2019-05-10T10:38:52.608Z,13.3
2019-05-10T10:39:59.024Z,13.1
2019-05-10T10:41:09.591Z,13.2
2019-05-10T10:42:13.011Z,13.3
2019-05-10T10:43:15.102Z,13.3
2019-05-10T10:44:19.331Z,13.2
2019-05-10T10:45:20.913Z,13.2
2019-05-10T10:46:22.775Z,13.4
2019-05-10T10:47:28.197Z,13.3
2019-05-10T10:48:33.770Z,13.2
2019-05-10T10:49:37.929Z,13.3
2019-05-10T10:50:44.079Z,13.2
2019-05-10T10:51:59.337Z,13.2
2019-05-10T10:53:01.198Z,13.3
2019-05-10T10:54:03.066Z,13.2
2019-05-10T10:55:10.292Z,13.2
2019-05-10T10:56:14.660Z,13.4
2019-05-10T10:57:18.917Z,13.7
2019-05-10T10:58:20.488Z,13.7
2019-05-10T10:59:22.073Z,13.8
2019-05-10T11:00:23.938Z,13.8
2019-05-10T11:01:33.148Z,14
2019-05-10T11:03:33.599Z,14
2019-05-10T11:04:40.271Z,14.2
2019-05-10T11:05:50.295Z,14.2
2019-05-10T11:07:08.100Z,14.2
2019-05-10T11:08:12.561Z,14.1
2019-05-10T11:09:14.425Z,13.9
2019-05-10T11:10:18.909Z,13.8
2019-05-10T11:11:23.741Z,13.8
2019-05-10T11:12:42.154Z,13.8
2019-05-10T11:13:45.985Z,13.7
2019-05-10T11:15:08.335Z,13.8
2019-05-10T11:16:26.705Z,13.7
2019-05-10T11:17:30.577Z,13.7
2019-05-10T11:18:32.626Z,13.7
2019-05-10T11:19:34.498Z,13.7
2019-05-10T11:20:36.364Z,13.7
2019-05-10T11:21:54.631Z,13.8
2019-05-10T11:22:56.505Z,13.8
2019-05-10T11:23:58.359Z,13.8
2019-05-10T11:25:08.852Z,13.8
2019-05-10T11:26:13.765Z,13.7
2019-05-10T11:27:17.312Z,13.8
2019-05-10T11:28:20.641Z,13.8
2019-05-10T11:29:27.608Z,13.7
2019-05-10T11:30:32.614Z,13.7
2019-05-10T11:31:34.566Z,13.7
2019-05-10T11:32:36.430Z,13.7
2019-05-10T11:33:41.073Z,13.9
2019-05-10T11:35:04.879Z,13.9
2019-05-10T11:36:08.815Z,14.1
2019-05-10T11:37:14.752Z,14.3
2019-05-10T11:38:33.246Z,14.4
2019-05-10T11:39:41.695Z,14.3
2019-05-10T11:40:50.843Z,14.2
2019-05-10T11:42:00.831Z,14.2
2019-05-10T11:43:08.787Z,14.2
2019-05-10T11:44:11.987Z,14.3
2019-05-10T11:45:13.967Z,14.5
2019-05-10T11:46:15.831Z,14.5
2019-05-10T11:47:23.841Z,14.7
2019-05-10T11:48:36.738Z,14.8
2019-05-10T11:49:43.144Z,14.9
2019-05-10T11:50:45.030Z,14.7
2019-05-10T11:51:47.800Z,14.6
2019-05-10T12:00:03.156Z,14.3
2019-05-10T12:01:14.601Z,14.5
2019-05-10T12:05:44.468Z,14.6
2019-05-10T12:06:49.851Z,14.5
2019-05-10T12:07:54.601Z,14.5
2019-05-10T12:09:00.979Z,14.7
2019-05-10T12:14:32.443Z,15
2019-05-10T12:15:34.308Z,15.1
2019-05-10T12:16:36.179Z,15.2
2019-05-10T12:17:38.052Z,15
2019-05-10T12:22:51.693Z,14.8
2019-05-10T12:23:56.150Z,14.4
2019-05-10T12:26:15.237Z,14.6
2019-05-10T12:26:15.237Z,14.6
2019-05-10T12:28:42.197Z,14.5
2019-05-10T12:29:46.471Z,14.4
2019-05-10T12:31:07.453Z,14.2
2019-05-10T12:32:17.814Z,14.2
2019-05-10T12:33:27.824Z,14.2
2019-05-10T12:34:31.107Z,14.2
2019-05-10T12:35:39.221Z,14.2
2019-05-10T12:36:48.552Z,14.4
2019-05-10T12:37:53.900Z,14.4
2019-05-10T12:38:58.745Z,14.4
2019-05-10T12:40:09.746Z,14.6
2019-05-10T12:41:16.441Z,14.8
2019-05-10T12:42:18.298Z,14.8
2019-05-10T12:43:23.123Z,14.7
2019-05-10T12:44:24.991Z,14.7
2019-05-10T12:45:26.860Z,14.7
2019-05-10T12:46:30.137Z,14.6
2019-05-10T12:47:33.680Z,14.6
2019-05-10T12:48:36.055Z,14.8
2019-05-10T12:49:37.973Z,14.9
2019-05-10T12:50:44.080Z,14.7
2019-05-10T12:51:45.942Z,14.7
2019-05-10T12:52:50.140Z,14.8
2019-05-10T12:54:23.678Z,14.8
2019-05-10T12:55:26.988Z,14.8
2019-05-10T12:56:34.759Z,14.8
2019-05-10T12:57:46.779Z,14.6
2019-05-10T12:58:56.155Z,14.8
2019-05-10T13:00:00.782Z,14.9
2019-05-10T13:01:12.384Z,14.7
2019-05-10T13:02:13.983Z,14.9
2019-05-10T13:03:18.923Z,14.9
2019-05-10T13:04:40.341Z,14.9
2019-05-10T13:05:52.329Z,14.9
2019-05-10T13:06:55.131Z,14.9
2019-05-10T13:07:56.996Z,15
2019-05-10T13:08:58.908Z,15
2019-05-10T13:10:03.352Z,15
2019-05-10T13:11:10.871Z,15
2019-05-10T13:12:12.733Z,14.7
2019-05-10T13:13:17.399Z,14.8
2019-05-10T13:14:30.846Z,14.8
2019-05-10T13:15:33.455Z,14.8
2019-05-10T13:16:35.429Z,14.8
2019-05-10T13:17:37.026Z,14.8
2019-05-10T13:18:52.642Z,14.8
2019-05-10T13:19:58.282Z,14.6
2019-05-10T13:21:02.081Z,14.6
2019-05-10T13:22:08.194Z,14.5
2019-05-10T13:23:15.769Z,14.4
2019-05-10T13:24:19.908Z,14.5
2019-05-10T13:25:21.770Z,14.4
2019-05-10T13:26:23.640Z,14.2
2019-05-10T13:27:25.508Z,14
2019-05-10T13:28:27.369Z,13.9
2019-05-10T13:29:29.254Z,14
2019-05-10T13:30:31.095Z,14.1
2019-05-10T13:31:41.666Z,14
2019-05-10T13:32:45.855Z,13.9
2019-05-10T13:33:47.718Z,14
2019-05-10T13:34:49.588Z,13.9
2019-05-10T13:35:56.344Z,14
2019-05-10T13:37:00.181Z,13.8
2019-05-10T13:38:03.437Z,14
2019-05-10T13:39:07.490Z,13.8
2019-05-10T13:40:09.353Z,14
2019-05-10T13:41:11.314Z,14
2019-05-10T13:42:12.907Z,13.9
2019-05-10T13:43:16.684Z,14
2019-05-10T13:44:29.371Z,14
2019-05-10T13:45:31.631Z,13.8
2019-05-10T13:46:40.694Z,13.8
2019-05-10T13:47:42.556Z,13.8
2019-05-10T13:48:44.421Z,13.8
2019-05-10T13:49:48.756Z,13.8
2019-05-10T13:50:51.006Z,13.9
2019-05-10T13:51:52.596Z,13.8
2019-05-10T13:52:54.458Z,13.8
2019-05-10T13:53:58.874Z,13.8
2019-05-10T13:55:05.966Z,13.8
2019-05-10T13:56:06.989Z,13.9
2019-05-10T13:57:08.853Z,13.8
2019-05-10T13:58:10.715Z,13.8
2019-05-10T13:59:17.873Z,13.9
2019-05-10T14:00:19.884Z,14.1
2019-05-10T14:01:21.745Z,14
2019-05-10T14:02:32.186Z,14.1
2019-05-10T14:03:44.252Z,14.2
2019-05-10T14:05:04.143Z,14.2
2019-05-10T14:06:05.732Z,14.2
2019-05-10T14:07:07.597Z,14.2
2019-05-10T14:08:09.467Z,14.3
2019-05-10T14:09:11.326Z,14.3
2019-05-10T14:10:18.034Z,14.2
2019-05-10T14:11:26.545Z,14.2
2019-05-10T14:12:28.409Z,14.2
2019-05-10T14:13:35.507Z,14.3
2019-05-10T14:14:44.243Z,14.4
2019-05-10T14:15:46.106Z,14.3
2019-05-10T14:16:47.969Z,14.4
2019-05-10T14:17:49.830Z,14.5
2019-05-10T14:18:51.695Z,14.5
2019-05-10T14:19:53.570Z,14.6
2019-05-10T14:20:55.438Z,14.7
2019-05-10T14:21:57.305Z,14.5
2019-05-10T14:22:59.218Z,14.6
2019-05-10T14:24:01.062Z,14.6
2019-05-10T14:25:02.925Z,14.5
2019-05-10T14:26:09.076Z,14.5
2019-05-10T14:27:19.563Z,14.5
2019-05-10T14:28:21.443Z,14.5
2019-05-10T14:29:32.762Z,14.6
2019-05-10T14:30:38.286Z,14.5
2019-05-10T14:31:40.151Z,14.3
2019-05-10T14:32:42.017Z,14.2
2019-05-10T14:33:47.602Z,14.4
2019-05-10T14:35:22.292Z,14.4
2019-05-10T14:36:25.679Z,14.5
2019-05-10T14:37:27.539Z,14.4
2019-05-10T14:38:29.156Z,14.6
2019-05-10T14:39:30.997Z,14.6
2019-05-10T14:40:32.859Z,14.6
2019-05-10T14:41:34.720Z,14.6
2019-05-10T14:42:40.213Z,14.7
2019-05-10T14:43:41.827Z,14.7
2019-05-10T14:44:43.690Z,14.8
2019-05-10T14:45:45.490Z,15
2019-05-10T14:46:47.360Z,14.8
2019-05-10T14:47:50.445Z,14.7
2019-05-10T14:48:52.516Z,14.7
2019-05-10T14:49:54.380Z,14.6
2019-05-10T14:50:56.251Z,14.6
2019-05-10T14:52:14.307Z,14.4
2019-05-10T14:53:19.734Z,14.2
2019-05-10T14:54:42.497Z,14.1